sensor_id;sensor_type;location;lat;lon;timestamp;P1;durP1;ratioP1;P2;durP2;ratioP2
4810;SDS011;2419;51.276;6.472;2023-07-29T00:02:15;9.60;;;2.50;;
4810;SDS011;2419;51.276;6.472;2023-07-29T00:04:43;8.03;;;2.70;;
4810;SDS011;2419;51.276;6.472;2023-07-29T00:07:11;5.47;;;3.03;;
4810;SDS011;2419;51.276;6.472;2023-07-29T00:09:39;8.20;;;3.50;;
4810;SDS011;2419;51.276;6.472;2023-07-29T00:12:07;5.10;;;3.23;;
4810;SDS011;2419;51.276;6.472;2023-07-29T00:14:35;3.50;;;3.20;;
4810;SDS011;2419;51.276;6.472;2023-07-29T00:17:03;5.17;;;2.93;;
4810;SDS011;2419;51.276;6.472;2023-07-29T00:19:33;3.20;;;2.90;;
4810;SDS011;2419;51.276;6.472;2023-07-29T00:22:01;3.43;;;2.83;;
4810;SDS011;2419;51.276;6.472;2023-07-29T00:24:29;3.60;;;2.97;;
4810;SDS011;2419;51.276;6.472;2023-07-29T00:26:57;5.07;;;2.90;;
4810;SDS011;2419;51.276;6.472;2023-07-29T00:29:26;2.90;;;2.70;;
4810;SDS011;2419;51.276;6.472;2023-07-29T00:31:54;3.50;;;3.20;;
4810;SDS011;2419;51.276;6.472;2023-07-29T00:34:22;3.73;;;3.43;;
4810;SDS011;2419;51.276;6.472;2023-07-29T00:36:51;3.20;;;2.90;;
4810;SDS011;2419;51.276;6.472;2023-07-29T00:39:19;8.73;;;2.90;;
4810;SDS011;2419;51.276;6.472;2023-07-29T00:41:47;3.70;;;3.37;;
4810;SDS011;2419;51.276;6.472;2023-07-29T00:44:15;2.83;;;2.53;;
4810;SDS011;2419;51.276;6.472;2023-07-29T00:46:43;3.97;;;3.50;;
4810;SDS011;2419;51.276;6.472;2023-07-29T00:49:13;3.13;;;2.80;;
4810;SDS011;2419;51.276;6.472;2023-07-29T00:51:41;4.70;;;3.03;;
4810;SDS011;2419;51.276;6.472;2023-07-29T00:54:11;3.77;;;2.97;;
4810;SDS011;2419;51.276;6.472;2023-07-29T00:56:39;4.13;;;2.90;;
4810;SDS011;2419;51.276;6.472;2023-07-29T00:59:08;3.80;;;3.40;;
4810;SDS011;2419;51.276;6.472;2023-07-29T01:01:37;3.27;;;2.97;;
4810;SDS011;2419;51.276;6.472;2023-07-29T01:04:06;3.63;;;3.33;;
4810;SDS011;2419;51.276;6.472;2023-07-29T01:06:37;3.40;;;3.10;;
4810;SDS011;2419;51.276;6.472;2023-07-29T01:09:18;5.07;;;3.23;;
4810;SDS011;2419;51.276;6.472;2023-07-29T01:11:58;3.40;;;3.10;;
4810;SDS011;2419;51.276;6.472;2023-07-29T01:14:35;9.80;;;3.47;;
4810;SDS011;2419;51.276;6.472;2023-07-29T01:17:09;4.20;;;3.10;;
4810;SDS011;2419;51.276;6.472;2023-07-29T01:19:42;2.70;;;2.47;;
4810;SDS011;2419;51.276;6.472;2023-07-29T01:22:16;8.23;;;3.57;;
4810;SDS011;2419;51.276;6.472;2023-07-29T01:24:47;4.33;;;3.23;;
4810;SDS011;2419;51.276;6.472;2023-07-29T01:27:15;5.43;;;3.20;;
4810;SDS011;2419;51.276;6.472;2023-07-29T01:29:43;3.40;;;3.10;;
4810;SDS011;2419;51.276;6.472;2023-07-29T01:32:16;3.90;;;3.50;;
4810;SDS011;2419;51.276;6.472;2023-07-29T01:34:47;3.10;;;2.80;;
4810;SDS011;2419;51.276;6.472;2023-07-29T01:37:22;3.73;;;3.30;;
4810;SDS011;2419;51.276;6.472;2023-07-29T01:39:56;4.77;;;4.00;;
4810;SDS011;2419;51.276;6.472;2023-07-29T01:42:27;3.33;;;3.10;;
4810;SDS011;2419;51.276;6.472;2023-07-29T01:44:57;4.13;;;3.60;;
4810;SDS011;2419;51.276;6.472;2023-07-29T01:47:25;12.83;;;3.40;;
4810;SDS011;2419;51.276;6.472;2023-07-29T01:49:54;4.00;;;3.63;;
4810;SDS011;2419;51.276;6.472;2023-07-29T01:52:22;3.73;;;3.40;;
4810;SDS011;2419;51.276;6.472;2023-07-29T01:54:50;4.10;;;3.00;;
4810;SDS011;2419;51.276;6.472;2023-07-29T01:57:19;4.00;;;3.60;;
4810;SDS011;2419;51.276;6.472;2023-07-29T01:59:47;3.87;;;3.10;;
4810;SDS011;2419;51.276;6.472;2023-07-29T02:02:15;4.87;;;3.23;;
4810;SDS011;2419;51.276;6.472;2023-07-29T02:04:43;3.97;;;3.57;;
4810;SDS011;2419;51.276;6.472;2023-07-29T02:07:17;5.30;;;3.30;;
4810;SDS011;2419;51.276;6.472;2023-07-29T02:09:45;4.17;;;3.43;;
4810;SDS011;2419;51.276;6.472;2023-07-29T02:12:14;5.13;;;3.97;;
4810;SDS011;2419;51.276;6.472;2023-07-29T02:14:43;4.40;;;3.57;;
4810;SDS011;2419;51.276;6.472;2023-07-29T02:17:11;4.57;;;4.17;;
4810;SDS011;2419;51.276;6.472;2023-07-29T02:19:39;4.00;;;3.60;;
4810;SDS011;2419;51.276;6.472;2023-07-29T02:22:07;5.73;;;4.73;;
4810;SDS011;2419;51.276;6.472;2023-07-29T02:24:35;5.60;;;3.43;;
4810;SDS011;2419;51.276;6.472;2023-07-29T02:27:03;5.57;;;3.83;;
4810;SDS011;2419;51.276;6.472;2023-07-29T02:29:32;5.17;;;3.43;;
4810;SDS011;2419;51.276;6.472;2023-07-29T02:32:01;4.33;;;3.93;;
4810;SDS011;2419;51.276;6.472;2023-07-29T02:34:30;4.73;;;4.27;;
4810;SDS011;2419;51.276;6.472;2023-07-29T02:37:00;4.63;;;3.63;;
4810;SDS011;2419;51.276;6.472;2023-07-29T02:39:28;10.73;;;3.87;;
4810;SDS011;2419;51.276;6.472;2023-07-29T02:41:56;6.63;;;4.30;;
4810;SDS011;2419;51.276;6.472;2023-07-29T02:44:24;5.00;;;3.00;;
4810;SDS011;2419;51.276;6.472;2023-07-29T02:46:53;4.23;;;3.83;;
4810;SDS011;2419;51.276;6.472;2023-07-29T02:49:23;5.40;;;4.30;;
4810;SDS011;2419;51.276;6.472;2023-07-29T02:51:51;4.90;;;3.43;;
4810;SDS011;2419;51.276;6.472;2023-07-29T02:54:19;4.27;;;3.60;;
4810;SDS011;2419;51.276;6.472;2023-07-29T02:56:49;4.30;;;3.67;;
4810;SDS011;2419;51.276;6.472;2023-07-29T02:59:18;4.93;;;3.60;;
4810;SDS011;2419;51.276;6.472;2023-07-29T03:01:46;8.40;;;4.00;;
4810;SDS011;2419;51.276;6.472;2023-07-29T03:04:14;5.27;;;4.77;;
4810;SDS011;2419;51.276;6.472;2023-07-29T03:06:43;8.43;;;3.90;;
4810;SDS011;2419;51.276;6.472;2023-07-29T03:09:11;7.73;;;4.17;;
4810;SDS011;2419;51.276;6.472;2023-07-29T03:11:39;6.63;;;4.37;;
4810;SDS011;2419;51.276;6.472;2023-07-29T03:14:07;4.43;;;3.83;;
4810;SDS011;2419;51.276;6.472;2023-07-29T03:16:35;4.33;;;3.93;;
4810;SDS011;2419;51.276;6.472;2023-07-29T03:19:04;7.30;;;3.63;;
4810;SDS011;2419;51.276;6.472;2023-07-29T03:21:32;5.23;;;3.90;;
4810;SDS011;2419;51.276;6.472;2023-07-29T03:24:02;4.20;;;3.80;;
4810;SDS011;2419;51.276;6.472;2023-07-29T03:26:30;6.10;;;4.27;;
4810;SDS011;2419;51.276;6.472;2023-07-29T03:28:58;6.30;;;3.60;;
4810;SDS011;2419;51.276;6.472;2023-07-29T03:31:26;3.63;;;3.33;;
4810;SDS011;2419;51.276;6.472;2023-07-29T03:33:54;6.30;;;3.40;;
4810;SDS011;2419;51.276;6.472;2023-07-29T03:36:22;4.00;;;3.60;;
4810;SDS011;2419;51.276;6.472;2023-07-29T03:38:52;4.63;;;3.43;;
4810;SDS011;2419;51.276;6.472;2023-07-29T03:41:21;2.93;;;2.63;;
4810;SDS011;2419;51.276;6.472;2023-07-29T03:43:49;4.93;;;3.53;;
4810;SDS011;2419;51.276;6.472;2023-07-29T03:46:17;4.00;;;3.60;;
4810;SDS011;2419;51.276;6.472;2023-07-29T03:48:48;9.17;;;3.37;;
4810;SDS011;2419;51.276;6.472;2023-07-29T03:51:16;3.37;;;2.97;;
4810;SDS011;2419;51.276;6.472;2023-07-29T03:53:44;6.47;;;3.23;;
4810;SDS011;2419;51.276;6.472;2023-07-29T03:56:12;4.80;;;3.23;;
4810;SDS011;2419;51.276;6.472;2023-07-29T03:58:42;4.43;;;2.93;;
4810;SDS011;2419;51.276;6.472;2023-07-29T04:01:11;3.40;;;3.10;;
4810;SDS011;2419;51.276;6.472;2023-07-29T04:03:40;4.67;;;3.23;;
4810;SDS011;2419;51.276;6.472;2023-07-29T04:06:08;3.43;;;3.13;;
4810;SDS011;2419;51.276;6.472;2023-07-29T04:08:36;3.67;;;3.30;;
4810;SDS011;2419;51.276;6.472;2023-07-29T04:11:04;4.03;;;3.23;;
4810;SDS011;2419;51.276;6.472;2023-07-29T04:13:32;4.47;;;3.90;;
4810;SDS011;2419;51.276;6.472;2023-07-29T04:16:01;4.40;;;3.97;;
4810;SDS011;2419;51.276;6.472;2023-07-29T04:18:29;6.17;;;3.77;;
4810;SDS011;2419;51.276;6.472;2023-07-29T04:20:58;6.40;;;3.37;;
4810;SDS011;2419;51.276;6.472;2023-07-29T04:23:26;4.40;;;3.30;;
4810;SDS011;2419;51.276;6.472;2023-07-29T04:25:54;3.40;;;3.10;;
4810;SDS011;2419;51.276;6.472;2023-07-29T04:28:22;6.30;;;3.57;;
4810;SDS011;2419;51.276;6.472;2023-07-29T04:30:50;7.60;;;3.90;;
4810;SDS011;2419;51.276;6.472;2023-07-29T04:33:20;4.67;;;4.27;;
4810;SDS011;2419;51.276;6.472;2023-07-29T04:35:48;6.03;;;3.53;;
4810;SDS011;2419;51.276;6.472;2023-07-29T04:38:16;6.67;;;3.80;;
4810;SDS011;2419;51.276;6.472;2023-07-29T04:40:44;7.47;;;4.50;;
4810;SDS011;2419;51.276;6.472;2023-07-29T04:43:13;6.03;;;3.67;;
4810;SDS011;2419;51.276;6.472;2023-07-29T04:45:42;6.13;;;4.40;;
4810;SDS011;2419;51.276;6.472;2023-07-29T04:48:10;4.90;;;4.07;;
4810;SDS011;2419;51.276;6.472;2023-07-29T04:50:40;7.30;;;4.27;;
4810;SDS011;2419;51.276;6.472;2023-07-29T04:53:08;5.87;;;3.80;;
4810;SDS011;2419;51.276;6.472;2023-07-29T04:55:36;7.80;;;4.30;;
4810;SDS011;2419;51.276;6.472;2023-07-29T04:58:04;13.40;;;4.83;;
4810;SDS011;2419;51.276;6.472;2023-07-29T05:00:32;6.60;;;4.07;;
4810;SDS011;2419;51.276;6.472;2023-07-29T05:03:02;5.27;;;3.70;;
4810;SDS011;2419;51.276;6.472;2023-07-29T05:05:30;5.27;;;4.20;;
4810;SDS011;2419;51.276;6.472;2023-07-29T05:08:00;5.50;;;4.30;;
4810;SDS011;2419;51.276;6.472;2023-07-29T05:10:28;8.53;;;4.30;;
4810;SDS011;2419;51.276;6.472;2023-07-29T05:12:56;4.50;;;3.63;;
4810;SDS011;2419;51.276;6.472;2023-07-29T05:15:24;5.07;;;3.90;;
4810;SDS011;2419;51.276;6.472;2023-07-29T05:17:52;5.47;;;3.87;;
4810;SDS011;2419;51.276;6.472;2023-07-29T05:20:20;4.30;;;3.60;;
4810;SDS011;2419;51.276;6.472;2023-07-29T05:22:48;5.37;;;3.80;;
4810;SDS011;2419;51.276;6.472;2023-07-29T05:25:17;5.57;;;3.77;;
4810;SDS011;2419;51.276;6.472;2023-07-29T05:27:45;7.33;;;4.73;;
4810;SDS011;2419;51.276;6.472;2023-07-29T05:30:14;4.33;;;3.40;;
4810;SDS011;2419;51.276;6.472;2023-07-29T05:32:42;4.40;;;3.20;;
4810;SDS011;2419;51.276;6.472;2023-07-29T05:35:10;4.67;;;4.23;;
4810;SDS011;2419;51.276;6.472;2023-07-29T05:37:38;3.80;;;3.40;;
4810;SDS011;2419;51.276;6.472;2023-07-29T05:40:07;4.77;;;3.43;;
4810;SDS011;2419;51.276;6.472;2023-07-29T05:42:39;6.50;;;3.43;;
4810;SDS011;2419;51.276;6.472;2023-07-29T05:45:07;4.40;;;2.93;;
4810;SDS011;2419;51.276;6.472;2023-07-29T05:47:36;4.63;;;2.77;;
4810;SDS011;2419;51.276;6.472;2023-07-29T05:50:04;3.00;;;2.70;;
4810;SDS011;2419;51.276;6.472;2023-07-29T05:52:33;5.07;;;3.17;;
4810;SDS011;2419;51.276;6.472;2023-07-29T05:55:01;6.23;;;2.60;;
4810;SDS011;2419;51.276;6.472;2023-07-29T05:57:30;5.10;;;3.00;;
4810;SDS011;2419;51.276;6.472;2023-07-29T06:00:00;6.40;;;2.90;;
4810;SDS011;2419;51.276;6.472;2023-07-29T06:02:38;4.97;;;3.00;;
4810;SDS011;2419;51.276;6.472;2023-07-29T06:05:10;3.40;;;2.40;;
4810;SDS011;2419;51.276;6.472;2023-07-29T06:07:38;3.43;;;2.80;;
4810;SDS011;2419;51.276;6.472;2023-07-29T06:10:12;3.10;;;2.80;;
4810;SDS011;2419;51.276;6.472;2023-07-29T06:12:43;7.33;;;3.00;;
4810;SDS011;2419;51.276;6.472;2023-07-29T06:15:13;2.63;;;2.10;;
4810;SDS011;2419;51.276;6.472;2023-07-29T06:17:41;3.63;;;2.23;;
4810;SDS011;2419;51.276;6.472;2023-07-29T06:20:10;2.70;;;2.20;;
4810;SDS011;2419;51.276;6.472;2023-07-29T06:22:38;2.90;;;2.37;;
4810;SDS011;2419;51.276;6.472;2023-07-29T06:25:06;3.10;;;2.23;;
4810;SDS011;2419;51.276;6.472;2023-07-29T06:27:35;3.67;;;2.10;;
4810;SDS011;2419;51.276;6.472;2023-07-29T06:30:03;2.87;;;2.30;;
4810;SDS011;2419;51.276;6.472;2023-07-29T06:32:33;2.83;;;2.13;;
4810;SDS011;2419;51.276;6.472;2023-07-29T06:35:01;1.93;;;1.73;;
4810;SDS011;2419;51.276;6.472;2023-07-29T06:37:30;2.10;;;1.90;;
4810;SDS011;2419;51.276;6.472;2023-07-29T06:39:59;2.00;;;1.80;;
4810;SDS011;2419;51.276;6.472;2023-07-29T06:42:27;3.03;;;2.30;;
4810;SDS011;2419;51.276;6.472;2023-07-29T06:44:56;3.40;;;1.80;;
4810;SDS011;2419;51.276;6.472;2023-07-29T06:47:24;1.73;;;1.63;;
4810;SDS011;2419;51.276;6.472;2023-07-29T06:49:53;2.53;;;1.80;;
4810;SDS011;2419;51.276;6.472;2023-07-29T06:52:21;1.73;;;1.63;;
4810;SDS011;2419;51.276;6.472;2023-07-29T06:54:49;7.00;;;2.67;;
4810;SDS011;2419;51.276;6.472;2023-07-29T06:57:17;3.03;;;1.87;;
4810;SDS011;2419;51.276;6.472;2023-07-29T06:59:45;2.20;;;1.97;;
4810;SDS011;2419;51.276;6.472;2023-07-29T07:02:15;2.83;;;2.13;;
4810;SDS011;2419;51.276;6.472;2023-07-29T07:04:44;3.53;;;1.60;;
4810;SDS011;2419;51.276;6.472;2023-07-29T07:07:17;6.63;;;1.80;;
4810;SDS011;2419;51.276;6.472;2023-07-29T07:09:48;2.07;;;1.80;;
4810;SDS011;2419;51.276;6.472;2023-07-29T07:12:16;2.23;;;1.80;;
4810;SDS011;2419;51.276;6.472;2023-07-29T07:14:44;1.97;;;1.80;;
4810;SDS011;2419;51.276;6.472;2023-07-29T07:17:13;2.60;;;1.63;;
4810;SDS011;2419;51.276;6.472;2023-07-29T07:19:41;1.60;;;1.50;;
4810;SDS011;2419;51.276;6.472;2023-07-29T07:22:09;2.13;;;1.30;;
4810;SDS011;2419;51.276;6.472;2023-07-29T07:24:39;2.60;;;1.50;;
4810;SDS011;2419;51.276;6.472;2023-07-29T07:27:07;1.90;;;1.70;;
4810;SDS011;2419;51.276;6.472;2023-07-29T07:29:35;1.90;;;1.33;;
4810;SDS011;2419;51.276;6.472;2023-07-29T07:32:04;1.70;;;1.60;;
4810;SDS011;2419;51.276;6.472;2023-07-29T07:34:32;3.47;;;1.50;;
4810;SDS011;2419;51.276;6.472;2023-07-29T07:37:00;3.60;;;1.87;;
4810;SDS011;2419;51.276;6.472;2023-07-29T07:39:30;1.43;;;1.33;;
4810;SDS011;2419;51.276;6.472;2023-07-29T07:42:00;3.23;;;1.43;;
4810;SDS011;2419;51.276;6.472;2023-07-29T07:44:28;1.30;;;1.20;;
4810;SDS011;2419;51.276;6.472;2023-07-29T07:46:56;1.40;;;1.30;;
4810;SDS011;2419;51.276;6.472;2023-07-29T07:49:24;2.63;;;1.23;;
4810;SDS011;2419;51.276;6.472;2023-07-29T07:51:52;1.60;;;1.33;;
4810;SDS011;2419;51.276;6.472;2023-07-29T07:54:20;2.80;;;1.33;;
4810;SDS011;2419;51.276;6.472;2023-07-29T07:56:48;1.40;;;1.30;;
4810;SDS011;2419;51.276;6.472;2023-07-29T07:59:17;1.70;;;1.40;;
4810;SDS011;2419;51.276;6.472;2023-07-29T08:01:45;1.23;;;1.13;;
4810;SDS011;2419;51.276;6.472;2023-07-29T08:04:14;1.50;;;1.40;;
4810;SDS011;2419;51.276;6.472;2023-07-29T08:06:42;1.33;;;1.23;;
4810;SDS011;2419;51.276;6.472;2023-07-29T08:09:10;3.97;;;1.50;;
4810;SDS011;2419;51.276;6.472;2023-07-29T08:11:38;1.80;;;1.70;;
4810;SDS011;2419;51.276;6.472;2023-07-29T08:14:06;1.20;;;1.07;;
4810;SDS011;2419;51.276;6.472;2023-07-29T08:16:35;2.63;;;1.30;;
4810;SDS011;2419;51.276;6.472;2023-07-29T08:19:04;3.20;;;1.70;;
4810;SDS011;2419;51.276;6.472;2023-07-29T08:21:33;1.33;;;1.10;;
4810;SDS011;2419;51.276;6.472;2023-07-29T08:24:01;2.80;;;1.50;;
4810;SDS011;2419;51.276;6.472;2023-07-29T08:26:29;1.70;;;1.60;;
4810;SDS011;2419;51.276;6.472;2023-07-29T08:28:57;1.30;;;1.20;;
4810;SDS011;2419;51.276;6.472;2023-07-29T08:31:25;1.50;;;1.10;;
4810;SDS011;2419;51.276;6.472;2023-07-29T08:33:55;1.57;;;1.47;;
4810;SDS011;2419;51.276;6.472;2023-07-29T08:36:23;2.00;;;1.27;;
4810;SDS011;2419;51.276;6.472;2023-07-29T08:38:51;1.67;;;1.40;;
4810;SDS011;2419;51.276;6.472;2023-07-29T08:41:19;2.90;;;1.43;;
4810;SDS011;2419;51.276;6.472;2023-07-29T08:43:52;2.10;;;1.80;;
4810;SDS011;2419;51.276;6.472;2023-07-29T08:46:27;1.47;;;1.37;;
4810;SDS011;2419;51.276;6.472;2023-07-29T08:48:57;1.33;;;1.23;;
4810;SDS011;2419;51.276;6.472;2023-07-29T08:51:27;2.53;;;1.40;;
4810;SDS011;2419;51.276;6.472;2023-07-29T08:53:58;8.63;;;1.40;;
4810;SDS011;2419;51.276;6.472;2023-07-29T08:56:27;2.70;;;1.43;;
4810;SDS011;2419;51.276;6.472;2023-07-29T08:58:56;2.17;;;1.60;;
4810;SDS011;2419;51.276;6.472;2023-07-29T09:01:26;2.70;;;1.50;;
4810;SDS011;2419;51.276;6.472;2023-07-29T09:03:58;1.60;;;1.43;;
4810;SDS011;2419;51.276;6.472;2023-07-29T09:06:26;1.47;;;1.37;;
4810;SDS011;2419;51.276;6.472;2023-07-29T09:08:55;1.97;;;1.30;;
4810;SDS011;2419;51.276;6.472;2023-07-29T09:11:23;1.87;;;1.37;;
4810;SDS011;2419;51.276;6.472;2023-07-29T09:13:52;6.70;;;1.50;;
4810;SDS011;2419;51.276;6.472;2023-07-29T09:16:20;1.53;;;1.40;;
4810;SDS011;2419;51.276;6.472;2023-07-29T09:18:48;1.33;;;1.23;;
4810;SDS011;2419;51.276;6.472;2023-07-29T09:21:20;1.70;;;1.60;;
4810;SDS011;2419;51.276;6.472;2023-07-29T09:23:51;1.93;;;1.70;;
4810;SDS011;2419;51.276;6.472;2023-07-29T09:26:22;2.70;;;1.60;;
4810;SDS011;2419;51.276;6.472;2023-07-29T09:28:51;1.30;;;1.20;;
4810;SDS011;2419;51.276;6.472;2023-07-29T09:31:20;1.50;;;1.40;;
4810;SDS011;2419;51.276;6.472;2023-07-29T09:33:49;1.67;;;1.57;;
4810;SDS011;2419;51.276;6.472;2023-07-29T09:36:20;1.53;;;1.27;;
4810;SDS011;2419;51.276;6.472;2023-07-29T09:38:50;2.90;;;1.77;;
4810;SDS011;2419;51.276;6.472;2023-07-29T09:41:21;3.03;;;1.47;;
4810;SDS011;2419;51.276;6.472;2023-07-29T09:43:55;1.73;;;1.60;;
4810;SDS011;2419;51.276;6.472;2023-07-29T09:46:25;1.33;;;1.23;;
4810;SDS011;2419;51.276;6.472;2023-07-29T09:48:59;1.40;;;1.30;;
4810;SDS011;2419;51.276;6.472;2023-07-29T09:51:28;3.37;;;1.30;;
4810;SDS011;2419;51.276;6.472;2023-07-29T09:53:56;1.47;;;1.37;;
4810;SDS011;2419;51.276;6.472;2023-07-29T09:56:25;1.63;;;1.43;;
4810;SDS011;2419;51.276;6.472;2023-07-29T09:58:55;2.80;;;1.30;;
4810;SDS011;2419;51.276;6.472;2023-07-29T10:01:24;1.97;;;1.50;;
4810;SDS011;2419;51.276;6.472;2023-07-29T10:03:52;3.27;;;1.47;;
4810;SDS011;2419;51.276;6.472;2023-07-29T10:06:22;1.87;;;1.60;;
4810;SDS011;2419;51.276;6.472;2023-07-29T10:08:52;1.50;;;1.40;;
4810;SDS011;2419;51.276;6.472;2023-07-29T10:11:21;1.30;;;1.13;;
4810;SDS011;2419;51.276;6.472;2023-07-29T10:13:51;3.73;;;1.60;;
4810;SDS011;2419;51.276;6.472;2023-07-29T10:16:34;2.40;;;1.57;;
4810;SDS011;2419;51.276;6.472;2023-07-29T10:19:04;3.10;;;1.63;;
4810;SDS011;2419;51.276;6.472;2023-07-29T10:21:33;1.73;;;1.60;;
4810;SDS011;2419;51.276;6.472;2023-07-29T10:24:05;1.43;;;1.33;;
4810;SDS011;2419;51.276;6.472;2023-07-29T10:26:36;1.87;;;1.37;;
4810;SDS011;2419;51.276;6.472;2023-07-29T10:29:10;5.40;;;1.37;;
4810;SDS011;2419;51.276;6.472;2023-07-29T10:31:40;2.70;;;1.60;;
4810;SDS011;2419;51.276;6.472;2023-07-29T10:34:10;1.60;;;1.50;;
4810;SDS011;2419;51.276;6.472;2023-07-29T10:36:39;1.70;;;1.40;;
4810;SDS011;2419;51.276;6.472;2023-07-29T10:39:10;1.30;;;1.20;;
4810;SDS011;2419;51.276;6.472;2023-07-29T10:41:54;1.50;;;1.40;;
4810;SDS011;2419;51.276;6.472;2023-07-29T10:47:17;2.00;;;1.57;;
4810;SDS011;2419;51.276;6.472;2023-07-29T10:49:49;5.63;;;1.47;;
4810;SDS011;2419;51.276;6.472;2023-07-29T10:52:29;1.63;;;1.40;;
4810;SDS011;2419;51.276;6.472;2023-07-29T10:55:22;3.40;;;1.40;;
4810;SDS011;2419;51.276;6.472;2023-07-29T10:57:52;1.73;;;1.40;;
4810;SDS011;2419;51.276;6.472;2023-07-29T11:00:31;2.63;;;1.37;;
4810;SDS011;2419;51.276;6.472;2023-07-29T11:03:00;2.40;;;1.53;;
4810;SDS011;2419;51.276;6.472;2023-07-29T11:05:45;1.30;;;1.13;;
4810;SDS011;2419;51.276;6.472;2023-07-29T11:08:18;2.27;;;1.60;;
4810;SDS011;2419;51.276;6.472;2023-07-29T11:11:03;1.80;;;1.40;;
4810;SDS011;2419;51.276;6.472;2023-07-29T11:13:33;1.30;;;1.10;;
4810;SDS011;2419;51.276;6.472;2023-07-29T11:16:02;1.40;;;1.30;;
4810;SDS011;2419;51.276;6.472;2023-07-29T11:18:31;1.70;;;1.47;;
4810;SDS011;2419;51.276;6.472;2023-07-29T11:21:01;2.57;;;1.50;;
4810;SDS011;2419;51.276;6.472;2023-07-29T11:23:30;1.63;;;1.43;;
4810;SDS011;2419;51.276;6.472;2023-07-29T11:25:59;5.03;;;1.30;;
4810;SDS011;2419;51.276;6.472;2023-07-29T11:28:29;1.70;;;1.20;;
4810;SDS011;2419;51.276;6.472;2023-07-29T11:30:58;3.00;;;1.87;;
4810;SDS011;2419;51.276;6.472;2023-07-29T11:33:26;1.50;;;1.30;;
4810;SDS011;2419;51.276;6.472;2023-07-29T11:35:55;2.57;;;1.80;;
4810;SDS011;2419;51.276;6.472;2023-07-29T11:38:23;6.17;;;1.50;;
4810;SDS011;2419;51.276;6.472;2023-07-29T11:40:54;1.50;;;1.40;;
4810;SDS011;2419;51.276;6.472;2023-07-29T11:43:23;1.60;;;1.50;;
4810;SDS011;2419;51.276;6.472;2023-07-29T11:45:54;1.37;;;1.27;;
4810;SDS011;2419;51.276;6.472;2023-07-29T11:48:28;1.50;;;1.30;;
4810;SDS011;2419;51.276;6.472;2023-07-29T11:50:58;1.43;;;1.30;;
4810;SDS011;2419;51.276;6.472;2023-07-29T11:53:27;3.53;;;1.30;;
4810;SDS011;2419;51.276;6.472;2023-07-29T11:55:57;1.40;;;1.30;;
4810;SDS011;2419;51.276;6.472;2023-07-29T11:58:28;1.67;;;1.57;;
4810;SDS011;2419;51.276;6.472;2023-07-29T12:00:59;3.07;;;1.37;;
4810;SDS011;2419;51.276;6.472;2023-07-29T12:03:27;3.47;;;1.63;;
4810;SDS011;2419;51.276;6.472;2023-07-29T12:05:56;1.93;;;1.73;;
4810;SDS011;2419;51.276;6.472;2023-07-29T12:08:24;1.87;;;1.57;;
4810;SDS011;2419;51.276;6.472;2023-07-29T12:10:53;2.37;;;1.43;;
4810;SDS011;2419;51.276;6.472;2023-07-29T12:13:23;4.13;;;1.80;;
4810;SDS011;2419;51.276;6.472;2023-07-29T12:15:51;3.00;;;1.70;;
4810;SDS011;2419;51.276;6.472;2023-07-29T12:18:24;1.63;;;1.53;;
4810;SDS011;2419;51.276;6.472;2023-07-29T12:20:58;2.90;;;1.90;;
4810;SDS011;2419;51.276;6.472;2023-07-29T12:23:26;4.30;;;1.60;;
4810;SDS011;2419;51.276;6.472;2023-07-29T12:25:56;1.87;;;1.60;;
4810;SDS011;2419;51.276;6.472;2023-07-29T12:28:25;5.80;;;1.60;;
4810;SDS011;2419;51.276;6.472;2023-07-29T12:30:53;1.63;;;1.53;;
4810;SDS011;2419;51.276;6.472;2023-07-29T12:33:32;1.40;;;1.30;;
4810;SDS011;2419;51.276;6.472;2023-07-29T12:36:02;2.87;;;1.63;;
4810;SDS011;2419;51.276;6.472;2023-07-29T12:38:30;1.50;;;1.40;;
4810;SDS011;2419;51.276;6.472;2023-07-29T12:40:58;2.37;;;1.73;;
4810;SDS011;2419;51.276;6.472;2023-07-29T12:43:26;2.53;;;1.87;;
4810;SDS011;2419;51.276;6.472;2023-07-29T12:45:56;7.60;;;2.03;;
4810;SDS011;2419;51.276;6.472;2023-07-29T12:48:24;2.80;;;1.90;;
4810;SDS011;2419;51.276;6.472;2023-07-29T12:50:53;1.77;;;1.53;;
4810;SDS011;2419;51.276;6.472;2023-07-29T12:53:21;7.17;;;1.50;;
4810;SDS011;2419;51.276;6.472;2023-07-29T12:55:49;2.47;;;1.77;;
4810;SDS011;2419;51.276;6.472;2023-07-29T12:58:17;1.60;;;1.33;;
4810;SDS011;2419;51.276;6.472;2023-07-29T13:00:45;3.90;;;1.60;;
4810;SDS011;2419;51.276;6.472;2023-07-29T13:03:14;2.13;;;1.23;;
4810;SDS011;2419;51.276;6.472;2023-07-29T13:05:42;2.20;;;1.83;;
4810;SDS011;2419;51.276;6.472;2023-07-29T13:08:12;2.10;;;1.60;;
4810;SDS011;2419;51.276;6.472;2023-07-29T13:10:40;2.37;;;1.60;;
4810;SDS011;2419;51.276;6.472;2023-07-29T13:13:08;3.23;;;2.03;;
4810;SDS011;2419;51.276;6.472;2023-07-29T13:15:36;1.70;;;1.60;;
4810;SDS011;2419;51.276;6.472;2023-07-29T13:18:04;1.60;;;1.50;;
4810;SDS011;2419;51.276;6.472;2023-07-29T13:20:32;2.40;;;1.80;;
4810;SDS011;2419;51.276;6.472;2023-07-29T13:23:01;1.77;;;1.67;;
4810;SDS011;2419;51.276;6.472;2023-07-29T13:25:30;2.87;;;1.60;;
4810;SDS011;2419;51.276;6.472;2023-07-29T13:27:58;1.80;;;1.53;;
4810;SDS011;2419;51.276;6.472;2023-07-29T13:30:26;2.30;;;2.10;;
4810;SDS011;2419;51.276;6.472;2023-07-29T13:32:55;1.90;;;1.70;;
4810;SDS011;2419;51.276;6.472;2023-07-29T13:35:23;2.50;;;2.30;;
4810;SDS011;2419;51.276;6.472;2023-07-29T13:37:52;2.50;;;2.23;;
4810;SDS011;2419;51.276;6.472;2023-07-29T13:40:20;2.20;;;2.00;;
4810;SDS011;2419;51.276;6.472;2023-07-29T13:42:49;2.27;;;1.83;;
4810;SDS011;2419;51.276;6.472;2023-07-29T13:45:18;2.00;;;1.80;;
4810;SDS011;2419;51.276;6.472;2023-07-29T13:47:46;3.20;;;1.83;;
4810;SDS011;2419;51.276;6.472;2023-07-29T13:50:14;1.90;;;1.73;;
4810;SDS011;2419;51.276;6.472;2023-07-29T13:52:42;3.13;;;1.93;;
4810;SDS011;2419;51.276;6.472;2023-07-29T13:55:10;1.67;;;1.57;;
4810;SDS011;2419;51.276;6.472;2023-07-29T13:57:38;1.80;;;1.70;;
4810;SDS011;2419;51.276;6.472;2023-07-29T14:00:09;1.70;;;1.60;;
4810;SDS011;2419;51.276;6.472;2023-07-29T14:02:37;2.10;;;1.87;;
4810;SDS011;2419;51.276;6.472;2023-07-29T14:05:05;2.00;;;1.80;;
4810;SDS011;2419;51.276;6.472;2023-07-29T14:07:34;3.33;;;2.03;;
4810;SDS011;2419;51.276;6.472;2023-07-29T14:10:02;2.23;;;1.80;;
4810;SDS011;2419;51.276;6.472;2023-07-29T14:12:31;1.93;;;1.37;;
4810;SDS011;2419;51.276;6.472;2023-07-29T14:14:59;2.20;;;1.27;;
4810;SDS011;2419;51.276;6.472;2023-07-29T14:17:28;1.83;;;1.63;;
4810;SDS011;2419;51.276;6.472;2023-07-29T14:19:56;3.23;;;1.80;;
4810;SDS011;2419;51.276;6.472;2023-07-29T14:22:24;3.17;;;2.10;;
4810;SDS011;2419;51.276;6.472;2023-07-29T14:24:52;3.43;;;1.77;;
4810;SDS011;2419;51.276;6.472;2023-07-29T14:27:23;1.73;;;1.63;;
4810;SDS011;2419;51.276;6.472;2023-07-29T14:29:51;1.70;;;1.60;;
4810;SDS011;2419;51.276;6.472;2023-07-29T14:32:19;1.87;;;1.50;;
4810;SDS011;2419;51.276;6.472;2023-07-29T14:34:50;2.50;;;1.80;;
4810;SDS011;2419;51.276;6.472;2023-07-29T14:37:18;2.00;;;1.80;;
4810;SDS011;2419;51.276;6.472;2023-07-29T14:39:46;1.67;;;1.50;;
4810;SDS011;2419;51.276;6.472;2023-07-29T14:42:14;1.53;;;1.43;;
4810;SDS011;2419;51.276;6.472;2023-07-29T14:44:42;1.80;;;1.70;;
4810;SDS011;2419;51.276;6.472;2023-07-29T14:47:11;1.67;;;1.43;;
4810;SDS011;2419;51.276;6.472;2023-07-29T14:49:39;2.17;;;1.70;;
4810;SDS011;2419;51.276;6.472;2023-07-29T14:52:08;1.67;;;1.57;;
4810;SDS011;2419;51.276;6.472;2023-07-29T14:54:36;1.67;;;1.57;;
4810;SDS011;2419;51.276;6.472;2023-07-29T14:57:05;4.07;;;1.77;;
4810;SDS011;2419;51.276;6.472;2023-07-29T14:59:34;2.80;;;2.10;;
4810;SDS011;2419;51.276;6.472;2023-07-29T15:02:02;2.17;;;1.90;;
4810;SDS011;2419;51.276;6.472;2023-07-29T15:04:30;1.83;;;1.53;;
4810;SDS011;2419;51.276;6.472;2023-07-29T15:06:58;1.50;;;1.40;;
4810;SDS011;2419;51.276;6.472;2023-07-29T15:09:28;1.70;;;1.60;;
4810;SDS011;2419;51.276;6.472;2023-07-29T15:11:55;2.10;;;1.83;;
4810;SDS011;2419;51.276;6.472;2023-07-29T15:14:24;1.50;;;1.40;;
4810;SDS011;2419;51.276;6.472;2023-07-29T15:16:52;1.90;;;1.37;;
4810;SDS011;2419;51.276;6.472;2023-07-29T15:19:20;1.63;;;1.53;;
4810;SDS011;2419;51.276;6.472;2023-07-29T15:21:49;1.80;;;1.70;;
4810;SDS011;2419;51.276;6.472;2023-07-29T15:24:17;1.70;;;1.60;;
4810;SDS011;2419;51.276;6.472;2023-07-29T15:26:46;1.30;;;1.20;;
4810;SDS011;2419;51.276;6.472;2023-07-29T15:29:14;1.50;;;1.30;;
4810;SDS011;2419;51.276;6.472;2023-07-29T15:31:42;2.10;;;1.40;;